Time;durP1;ratioP1;P1;durP2;ratioP2;P2;SDS_P1;SDS_P2;PMS_P1;PMS_P2;Temp;Humidity;BMP_temperature;BMP_pressure;BME280_temperature;BME280_humidity;BME280_pressure;Samples;Min_cycle;Max_cycle;Signal;HPM_P1;HPM_P2
2024/04/19 00:02:05;;;;;;;18.85;11.40;;;205.20;2252.80;;;;;;5447885;26;20010;-69
2024/04/19 00:04:31;;;;;;;16.77;11.68;;;205.20;2252.80;;;;;;5447391;26;20329;-75
2024/04/19 00:06:57;;;;;;;18.73;11.23;;;205.20;2252.80;;;;;;5447850;26;20006;-69
2024/04/19 00:09:23;;;;;;;76.82;65.00;;;205.30;2252.80;;;;;;5447801;26;20013;-69
2024/04/19 00:11:49;;;;;;;24.45;17.98;;;205.40;2252.80;;;;;;5447642;26;20010;-70
2024/04/19 00:14:14;;;;;;;19.02;13.48;;;205.40;2252.80;;;;;;5448226;26;20003;-69
2024/04/19 00:16:40;;;;;;;30.45;26.90;;;205.40;2252.80;;;;;;5447318;26;20003;-70
2024/04/19 00:19:06;;;;;;;16.40;12.52;;;205.50;2252.80;;;;;;5447943;26;20006;-68
2024/04/19 00:21:32;;;;;;;17.85;11.32;;;205.50;2252.80;;;;;;5446099;26;20002;-69
2024/04/19 00:23:58;;;;;;;19.67;11.25;;;205.60;2252.80;;;;;;5447964;26;20002;-75
2024/04/19 00:26:24;;;;;;;18.23;11.30;;;205.60;2252.80;;;;;;5447637;26;20009;-76
2024/04/19 00:28:50;;;;;;;17.83;11.93;;;205.60;2252.80;;;;;;5447576;26;20505;-74
2024/04/19 00:31:16;;;;;;;304.33;155.23;;;205.60;2252.80;;;;;;5447900;26;20027;-73
2024/04/19 00:33:43;;;;;;;69.85;37.67;;;205.70;2252.80;;;;;;5448100;26;20016;-75
2024/04/19 00:36:09;;;;;;;26.38;14.68;;;205.70;2252.80;;;;;;5447657;26;20018;-76
2024/04/19 00:38:34;;;;;;;17.48;11.65;;;205.70;2252.80;;;;;;5447490;26;20452;-70
2024/04/19 00:41:00;;;;;;;19.52;10.90;;;205.70;2252.80;;;;;;5446800;26;20015;-70
2024/04/19 00:43:26;;;;;;;18.40;14.52;;;205.70;2252.80;;;;;;5447930;26;20003;-74
2024/04/19 00:45:52;;;;;;;16.30;10.55;;;230.40;2252.80;;;;;;5447492;26;20072;-75
2024/04/19 00:48:20;;;;;;;15.07;13.48;;;230.50;2252.80;;;;;;5448027;26;20013;-70
2024/04/19 00:50:49;;;;;;;15.75;13.07;;;230.50;2252.80;;;;;;5447403;26;20357;-70
2024/04/19 00:53:30;;;;;;;21.52;12.63;;;230.60;2252.80;;;;;;5448033;26;20002;-74
2024/04/19 00:55:58;;;;;;;13.02;9.27;;;230.60;2252.80;;;;;;5449918;26;20042;-72
2024/04/19 00:58:28;;;;;;;12.02;8.13;;;230.60;2252.80;;;;;;5449040;26;19998;-74
2024/04/19 01:00:58;;;;;;;11.15;9.13;;;230.60;2252.80;;;;;;5447377;26;19999;-72
2024/04/19 01:03:24;;;;;;;11.55;8.30;;;230.70;2252.80;;;;;;5448280;26;20010;-76
2024/04/19 01:05:50;;;;;;;10.77;8.40;;;230.70;2252.80;;;;;;5447123;26;20067;-74
2024/04/19 01:08:16;;;;;;;13.95;9.75;;;230.70;2252.80;;;;;;5448321;26;20478;-70
2024/04/19 01:10:43;;;;;;;13.63;8.93;;;230.70;2252.80;;;;;;5446606;26;20003;-70
2024/04/19 01:13:09;;;;;;;12.90;8.85;;;230.80;2252.80;;;;;;5447578;26;20014;-70
2024/04/19 01:15:36;;;;;;;12.65;10.00;;;230.80;2252.80;;;;;;5447022;26;19999;-68
2024/04/19 01:18:03;;;;;;;13.55;9.80;;;230.80;2252.80;;;;;;5447816;26;20017;-70
2024/04/19 01:20:29;;;;;;;16.88;10.93;;;230.80;2252.80;;;;;;5446801;26;20350;-70
2024/04/19 01:22:55;;;;;;;12.57;10.27;;;230.80;2252.80;;;;;;5447853;26;20017;-74
2024/04/19 01:25:32;;;;;;;11.50;8.88;;;230.80;2252.80;;;;;;5447007;26;20017;-75
2024/04/19 01:27:57;;;;;;;13.35;8.48;;;230.80;2252.80;;;;;;5447596;26;20002;-73
2024/04/19 01:30:23;;;;;;;17.45;10.13;;;230.80;2252.80;;;;;;5446107;26;20026;-74
2024/04/19 01:32:49;;;;;;;14.02;8.35;;;230.80;2252.80;;;;;;5446652;26;20402;-71
2024/04/19 01:35:15;;;;;;;12.95;8.77;;;230.80;2252.80;;;;;;5446820;26;20005;-76
2024/04/19 01:37:41;;;;;;;14.27;9.60;;;230.80;2252.80;;;;;;5447589;26;20468;-73
2024/04/19 01:40:07;;;;;;;12.73;8.88;;;230.70;2252.80;;;;;;5446457;26;20452;-70
2024/04/19 01:42:33;;;;;;;10.27;8.15;;;230.70;2252.80;;;;;;5446463;26;20529;-70
2024/04/19 01:44:59;;;;;;;14.48;8.35;;;230.70;2252.80;;;;;;5444809;26;19999;-70
2024/04/19 01:47:25;;;;;;;12.07;8.55;;;230.70;2252.80;;;;;;5445953;26;20344;-68
2024/04/19 01:49:51;;;;;;;12.93;9.43;;;230.70;2252.80;;;;;;5445208;26;20136;-71
2024/04/19 01:52:17;;;;;;;17.20;11.35;;;230.70;2252.80;;;;;;5446792;26;20011;-70
2024/04/19 01:54:43;;;;;;;13.93;10.27;;;230.70;2252.80;;;;;;5445918;26;20003;-69
2024/04/19 01:57:09;;;;;;;13.82;10.18;;;230.70;2252.80;;;;;;5447140;26;20429;-69
2024/04/19 01:59:35;;;;;;;12.52;8.13;;;230.70;2252.80;;;;;;5445425;26;20010;-69
2024/04/19 02:02:01;;;;;;;17.65;9.85;;;230.80;2252.80;;;;;;5446431;26;19999;-69
2024/04/19 02:04:27;;;;;;;15.10;10.20;;;230.80;2252.80;;;;;;5445812;26;20031;-74
2024/04/19 02:06:53;;;;;;;14.40;8.68;;;230.80;2252.80;;;;;;5446164;26;20003;-69
2024/04/19 02:09:19;;;;;;;21.33;12.07;;;230.80;2252.80;;;;;;5446251;26;20433;-71
2024/04/19 02:11:45;;;;;;;16.58;10.38;;;230.80;2252.80;;;;;;5447369;26;20014;-75
2024/04/19 02:14:11;;;;;;;12.90;8.93;;;230.80;2252.80;;;;;;5446167;26;19998;-75
2024/04/19 02:16:37;;;;;;;15.55;10.13;;;230.80;2252.80;;;;;;5415113;26;20151;-73
2024/04/19 02:19:03;;;;;;;12.68;8.75;;;230.80;2252.80;;;;;;5448282;26;19991;-74
2024/04/19 02:21:29;;;;;;;14.10;8.77;;;230.80;2252.80;;;;;;5453866;26;19999;-71
2024/04/19 02:23:55;;;;;;;54.58;42.67;;;230.80;2252.80;;;;;;5453418;26;20343;-69
2024/04/19 02:26:20;;;;;;;13.38;8.88;;;230.90;2252.80;;;;;;5445433;26;19995;-70
2024/04/19 02:31:31;;;;;;;12.32;9.40;;;230.80;2252.80;;;;;;5445265;26;20014;-70
2024/04/19 02:33:57;;;;;;;11.95;8.23;;;230.80;2252.80;;;;;;5446030;26;20324;-72
2024/04/19 02:36:23;;;;;;;12.20;8.45;;;230.80;2252.80;;;;;;5444712;26;20402;-69
2024/04/19 02:38:49;;;;;;;13.05;7.93;;;230.70;2252.80;;;;;;5446452;26;20003;-70
2024/04/19 02:41:15;;;;;;;12.52;8.02;;;230.70;2252.80;;;;;;5445642;26;19999;-68
2024/04/19 02:43:48;;;;;;;10.48;8.38;;;230.70;2252.80;;;;;;5445573;26;20013;-74
2024/04/19 02:46:17;;;;;;;10.52;7.55;;;230.70;2252.80;;;;;;5447101;26;20071;-69
2024/04/19 02:48:43;;;;;;;18.67;10.40;;;230.70;2252.80;;;;;;5449712;26;19998;-69
2024/04/19 02:51:09;;;;;;;16.38;9.68;;;230.70;2252.80;;;;;;5448407;26;20048;-70
2024/04/19 02:53:35;;;;;;;12.85;9.10;;;230.70;2252.80;;;;;;5449513;26;20358;-69
2024/04/19 02:56:02;;;;;;;13.38;10.30;;;230.70;2252.80;;;;;;5449274;26;20402;-72
2024/04/19 02:58:28;;;;;;;11.40;9.13;;;230.80;2252.80;;;;;;5449343;26;20035;-76
2024/04/19 03:00:53;;;;;;;13.10;9.32;;;230.70;2252.80;;;;;;5448692;26;20009;-71
2024/04/19 03:03:19;;;;;;;12.55;8.85;;;230.70;2252.80;;;;;;5449333;26;20002;-74
2024/04/19 03:05:45;;;;;;;13.00;8.68;;;231.00;2252.80;;;;;;5448764;26;20003;-73
2024/04/19 03:08:11;;;;;;;11.30;8.35;;;230.70;2252.80;;;;;;5449359;26;20010;-76
2024/04/19 03:10:38;;;;;;;10.15;8.15;;;230.60;2252.80;;;;;;5448760;26;19998;-74
2024/04/19 03:13:05;;;;;;;10.95;7.25;;;230.60;2252.80;;;;;;5449282;26;20002;-68
2024/04/19 03:15:31;;;;;;;10.90;6.55;;;230.60;2252.80;;;;;;5447983;26;20011;-69
2024/04/19 03:17:57;;;;;;;13.65;8.95;;;230.60;2252.80;;;;;;5449004;26;20027;-69
2024/04/19 03:20:22;;;;;;;13.18;8.07;;;230.60;2252.80;;;;;;5447707;26;20002;-71
2024/04/19 03:22:48;;;;;;;10.75;7.20;;;230.50;2252.80;;;;;;5448758;26;20071;-69
2024/04/19 03:25:14;;;;;;;12.65;8.70;;;230.50;2252.80;;;;;;5448641;26;20011;-72
2024/04/19 03:27:40;;;;;;;17.60;10.13;;;230.50;2252.80;;;;;;5448794;26;20079;-69
2024/04/19 03:30:06;;;;;;;10.30;7.35;;;230.50;2252.80;;;;;;5448102;26;20046;-69
2024/04/19 03:32:32;;;;;;;12.60;9.35;;;205.70;2252.80;;;;;;5448731;26;20003;-70
2024/04/19 03:34:58;;;;;;;9.90;8.00;;;205.70;2252.80;;;;;;5448089;26;20005;-69
2024/04/19 03:37:24;;;;;;;9.00;6.55;;;205.70;2252.80;;;;;;5448467;26;20030;-69
2024/04/19 03:39:49;;;;;;;10.18;6.57;;;205.70;2252.80;;;;;;5447426;26;20003;-74
2024/04/19 03:42:18;;;;;;;8.90;6.45;;;205.70;2252.80;;;;;;5449018;26;19999;-70
2024/04/19 03:47:29;;;;;;;10.30;6.60;;;205.70;2252.80;;;;;;5449015;26;20067;-70
2024/04/19 03:49:55;;;;;;;10.73;7.88;;;205.70;2252.80;;;;;;5448052;26;20007;-70
2024/04/19 03:52:21;;;;;;;9.60;7.13;;;205.70;2252.80;;;;;;5448541;26;19998;-75
2024/04/19 03:54:47;;;;;;;9.40;6.63;;;205.70;2252.80;;;;;;5447965;26;20009;-70
2024/04/19 03:57:12;;;;;;;12.38;6.28;;;205.70;2252.80;;;;;;5448191;26;20003;-70
2024/04/19 03:59:41;;;;;;;11.70;6.78;;;205.60;2252.80;;;;;;5447593;26;20362;-70
2024/04/19 04:02:07;;;;;;;7.43;5.50;;;205.60;2252.80;;;;;;5448612;26;20003;-69
2024/04/19 04:04:33;;;;;;;23.60;15.70;;;205.60;2252.80;;;;;;5447201;26;20333;-75
2024/04/19 04:06:59;;;;;;;11.40;7.07;;;205.60;2252.80;;;;;;5449077;26;20014;-69
2024/04/19 04:09:25;;;;;;;9.98;7.22;;;205.70;2252.80;;;;;;5447665;26;19995;-69
2024/04/19 04:11:50;;;;;;;11.35;6.13;;;205.70;2252.80;;;;;;5448216;26;19999;-71
2024/04/19 04:14:16;;;;;;;12.63;7.25;;;230.50;2252.80;;;;;;5447544;26;20011;-69
2024/04/19 04:16:42;;;;;;;11.77;6.40;;;230.50;2252.80;;;;;;5448571;26;20002;-71
2024/04/19 04:19:08;;;;;;;7.60;5.40;;;230.50;2252.80;;;;;;5447693;26;20069;-73
2024/04/19 04:21:34;;;;;;;11.65;7.25;;;230.50;2252.80;;;;;;5447790;26;19999;-70
2024/04/19 04:23:59;;;;;;;9.02;6.15;;;230.60;2252.80;;;;;;5447522;26;19998;-70
2024/04/19 04:26:25;;;;;;;10.85;7.40;;;230.70;2252.80;;;;;;5448012;26;20018;-71
2024/04/19 04:28:51;;;;;;;9.20;6.47;;;230.70;2252.80;;;;;;5447269;26;20017;-72
2024/04/19 04:31:17;;;;;;;8.98;5.53;;;230.90;2252.80;;;;;;5448268;26;20001;-70
2024/04/19 04:33:43;;;;;;;13.07;11.52;;;230.90;2252.80;;;;;;5447966;26;20011;-70
2024/04/19 04:36:08;;;;;;;12.85;8.68;;;256.10;2252.80;;;;;;5447565;26;20075;-68
2024/04/19 04:38:34;;;;;;;12.35;9.05;;;282.10;2278.40;;;;;;5447877;26;19999;-70
2024/04/19 04:41:00;;;;;;;10.30;8.02;;;308.00;2304.00;;;;;;5446717;26;20006;-70
2024/04/19 04:43:26;;;;;;;8.23;6.55;;;307.30;2304.00;;;;;;5447012;26;20348;-74
2024/04/19 04:45:52;;;;;;;9.93;6.20;;;281.90;2278.40;;;;;;5447030;26;20007;-73
2024/04/19 04:48:17;;;;;;;8.57;5.90;;;256.90;2252.80;;;;;;5448137;26;19999;-70
2024/04/19 04:50:43;;;;;;;8.02;5.50;;;282.40;2278.40;;;;;;5446805;26;20453;-69
2024/04/19 04:53:10;;;;;;;8.93;6.43;;;307.30;2304.00;;;;;;5447261;26;20018;-71
2024/04/19 04:55:36;;;;;;;7.70;6.32;;;307.40;2304.00;;;;;;5447171;26;20018;-70
2024/04/19 04:58:02;;;;;;;7.80;5.68;;;282.50;2278.40;;;;;;5446236;26;20033;-68
2024/04/19 05:00:29;;;;;;;29.65;26.88;;;282.50;2278.40;;;;;;5446796;26;20015;-70
2024/04/19 05:02:59;;;;;;;10.45;7.95;;;282.00;2278.40;;;;;;5447459;26;20025;-69
2024/04/19 05:05:25;;;;;;;17.05;10.77;;;282.40;2278.40;;;;;;5446830;26;20003;-70
2024/04/19 05:07:52;;;;;;;9.20;6.90;;;281.90;2278.40;;;;;;5446041;26;20010;-71
2024/04/19 05:10:19;;;;;;;8.73;5.93;;;307.20;2304.00;;;;;;5446915;26;20046;-70
2024/04/19 05:12:45;;;;;;;8.98;6.22;;;307.70;2304.00;;;;;;5447114;26;20479;-71
2024/04/19 05:15:11;;;;;;;10.80;7.18;;;307.70;2304.00;;;;;;5446634;26;20031;-75
2024/04/19 05:17:37;;;;;;;10.18;6.28;;;333.50;2227.20;;;;;;5447417;26;20203;-71
2024/04/19 05:20:03;;;;;;;11.68;7.57;;;384.00;2073.60;;;;;;5446834;26;20010;-76
2024/04/19 05:22:29;;;;;;;16.20;10.98;;;384.90;1971.20;;;;;;5447475;26;20007;-69
2024/04/19 05:24:55;;;;;;;9.05;7.25;;;409.80;1971.20;;;;;;5446583;26;20009;-70
2024/04/19 05:27:21;;;;;;;8.65;6.85;;;461.20;1843.20;;;;;;5446351;26;20074;-70
2024/04/19 05:29:47;;;;;;;14.00;11.40;;;486.60;1740.80;;;;;;5446754;26;19999;-72
2024/04/19 05:32:12;;;;;;;7.45;6.13;;;512.10;1664.00;;;;;;5447392;26;20500;-70
2024/04/19 05:34:38;;;;;;;11.02;8.45;;;563.40;1561.60;;;;;;5446356;26;20072;-71
2024/04/19 05:37:04;;;;;;;24.55;19.85;;;512.90;1561.60;;;;;;5446807;26;19999;-77
2024/04/19 05:39:30;;;;;;;8.95;7.40;;;538.50;1536.00;;;;;;5445810;26;20013;-73
2024/04/19 05:41:56;;;;;;;8.30;7.40;;;563.50;1536.00;;;;;;5446394;26;20044;-73
2024/04/19 05:44:22;;;;;;;12.30;10.18;;;564.00;1484.80;;;;;;5445731;26;20010;-75
2024/04/19 05:46:48;;;;;;;8.63;6.63;;;589.60;1433.60;;;;;;5446975;26;20073;-72
2024/04/19 05:49:15;;;;;;;9.48;8.18;;;538.50;1510.40;;;;;;5446075;26;20003;-74
2024/04/19 05:51:41;;;;;;;19.55;17.35;;;589.40;1433.60;;;;;;5446315;26;20558;-77
2024/04/19 05:54:07;;;;;;;10.65;9.52;;;589.10;1433.60;;;;;;5445947;26;20006;-76
2024/04/19 05:56:32;;;;;;;8.63;7.75;;;589.10;1433.60;;;;;;5446301;26;20010;-75
2024/04/19 05:58:58;;;;;;;11.38;10.38;;;589.60;1433.60;;;;;;5445515;26;20023;-73
2024/04/19 06:01:24;;;;;;;8.00;7.13;;;589.70;1408.00;;;;;;5446094;26;20014;-69
2024/04/19 06:03:50;;;;;;;7.90;7.10;;;615.20;1356.80;;;;;;5445512;26;20007;-71
2024/04/19 06:06:16;;;;;;;7.38;6.63;;;614.80;1356.80;;;;;;5446483;26;20397;-70
2024/04/19 06:08:42;;;;;;;7.50;6.72;;;614.70;1356.80;;;;;;5444769;26;20010;-72
2024/04/19 06:11:08;;;;;;;9.55;8.57;;;640.40;1280.00;;;;;;5446314;26;20002;-70
2024/04/19 06:13:34;;;;;;;8.38;6.68;;;665.60;1305.60;;;;;;5445014;26;20003;-70
2024/04/19 06:16:00;;;;;;;7.82;6.03;;;666.00;1254.40;;;;;;5446205;26;20038;-71
2024/04/19 06:18:25;;;;;;;7.35;6.65;;;640.60;1254.40;;;;;;5445247;26;20002;-71
2024/04/19 06:20:51;;;;;;;6.90;6.03;;;665.90;1280.00;;;;;;5447613;26;20443;-71
2024/04/19 06:23:17;;;;;;;9.43;8.45;;;666.00;1254.40;;;;;;5448869;26;20087;-70
2024/04/19 06:25:43;;;;;;;8.98;7.95;;;691.40;1228.80;;;;;;5449034;26;20468;-72
2024/04/19 06:28:09;;;;;;;12.15;11.05;;;691.60;1203.20;;;;;;5448615;26;20182;-70
2024/04/19 06:30:35;;;;;;;8.93;8.13;;;691.60;1203.20;;;;;;5449573;26;20013;-70
2024/04/19 06:33:00;;;;;;;8.00;7.13;;;691.60;1177.60;;;;;;5448709;26;19999;-72
2024/04/19 06:35:26;;;;;;;7.93;7.13;;;691.90;1177.60;;;;;;5449124;26;20003;-71
2024/04/19 06:37:52;;;;;;;7.70;7.00;;;692.00;1152.00;;;;;;5447993;26;19998;-76
2024/04/19 06:40:18;;;;;;;9.40;8.40;;;692.10;1152.00;;;;;;5417806;26;20013;-75
2024/04/19 06:42:44;;;;;;;7.97;7.18;;;743.00;1152.00;;;;;;5447396;26;20066;-74
2024/04/19 06:45:09;;;;;;;8.63;7.25;;;742.90;1152.00;;;;;;5446833;26;20003;-74
2024/04/19 06:47:35;;;;;;;8.20;7.40;;;768.30;1126.40;;;;;;5447612;26;20006;-72
2024/04/19 06:50:01;;;;;;;8.55;6.85;;;768.40;1126.40;;;;;;5448536;26;19999;-74
2024/04/19 06:52:27;;;;;;;9.70;8.77;;;717.10;1152.00;;;;;;5448293;26;20445;-73
2024/04/19 06:54:53;;;;;;;7.90;7.20;;;742.40;1177.60;;;;;;5448991;26;20464;-75
2024/04/19 06:57:19;;;;;;;8.38;7.63;;;742.90;1126.40;;;;;;5447902;26;20442;-74
2024/04/19 06:59:45;;;;;;;9.00;7.90;;;742.70;1152.00;;;;;;5449328;26;19998;-74
2024/04/19 07:02:11;;;;;;;11.63;8.43;;;742.60;1152.00;;;;;;5448062;26;20011;-75
2024/04/19 07:04:37;;;;;;;9.48;8.57;;;742.90;1152.00;;;;;;5448985;26;20030;-76
2024/04/19 07:07:03;;;;;;;7.75;7.05;;;716.80;1152.00;;;;;;5447793;26;20027;-76
2024/04/19 07:09:29;;;;;;;9.13;6.53;;;768.40;1100.80;;;;;;5448540;26;20075;-77
2024/04/19 07:11:55;;;;;;;7.97;6.18;;;743.30;1126.40;;;;;;5448155;26;20007;-75
2024/04/19 07:14:21;;;;;;;6.85;5.95;;;742.60;1126.40;;;;;;5448074;26;20445;-76
2024/04/19 07:16:47;;;;;;;13.75;12.65;;;691.50;1177.60;;;;;;5447275;26;20006;-76
2024/04/19 07:19:13;;;;;;;6.25;5.65;;;768.00;1126.40;;;;;;5448088;26;20018;-73
2024/04/19 07:21:39;;;;;;;5.72;5.22;;;743.10;1100.80;;;;;;5447995;26;20010;-74
2024/04/19 07:24:06;;;;;;;10.50;9.50;;;666.50;1177.60;;;;;;5447587;26;20448;-74
2024/04/19 07:26:34;;;;;;;6.90;5.53;;;665.90;1203.20;;;;;;5445841;26;20518;-74
2024/04/19 07:29:00;;;;;;;9.90;8.48;;;614.90;1254.40;;;;;;5447935;26;20087;-73
2024/04/19 07:31:26;;;;;;;9.82;7.30;;;665.80;1203.20;;;;;;5447204;26;20003;-74
2024/04/19 07:33:52;;;;;;;7.45;6.35;;;691.30;1203.20;;;;;;5448198;26;20010;-74
2024/04/19 07:36:18;;;;;;;9.95;9.05;;;742.60;1152.00;;;;;;5447624;26;20002;-73
2024/04/19 07:38:44;;;;;;;7.32;6.55;;;794.30;1075.20;;;;;;5447532;26;20003;-74
2024/04/19 07:41:10;;;;;;;7.03;5.22;;;819.30;1049.60;;;;;;5447257;26;19999;-73
2024/04/19 07:43:36;;;;;;;6.60;5.57;;;743.30;1100.80;;;;;;5448306;26;20003;-73
2024/04/19 07:46:02;;;;;;;9.70;8.40;;;691.30;1177.60;;;;;;5415568;26;20067;-73
2024/04/19 07:48:28;;;;;;;13.65;11.13;;;640.10;1228.80;;;;;;5448199;26;20005;-73
2024/04/19 07:50:54;;;;;;;5.78;5.18;;;716.80;1203.20;;;;;;5447243;26;20074;-72
2024/04/19 07:53:22;;;;;;;5.75;5.15;;;666.50;1177.60;;;;;;5447617;26;19998;-75
2024/04/19 07:55:48;;;;;;;7.28;6.13;;;666.20;1203.20;;;;;;5448626;26;20007;-74
2024/04/19 07:58:14;;;;;;;6.40;5.80;;;614.90;1228.80;;;;;;5446534;26;20444;-77
2024/04/19 08:00:40;;;;;;;30.60;24.05;;;666.20;1203.20;;;;;;5447882;26;20008;-72
2024/04/19 08:03:07;;;;;;;6.35;5.30;;;691.80;1152.00;;;;;;5447375;26;19995;-73
2024/04/19 08:05:33;;;;;;;9.32;7.40;;;640.10;1228.80;;;;;;5447974;26;19995;-75
2024/04/19 08:07:59;;;;;;;6.03;5.00;;;588.80;1331.20;;;;;;5447534;26;20017;-75
2024/04/19 08:10:27;;;;;;;10.65;5.40;;;537.60;1433.60;;;;;;5446720;26;20444;-76
2024/04/19 08:12:53;;;;;;;6.07;5.47;;;537.90;1433.60;;;;;;5446590;26;20002;-73
2024/04/19 08:15:19;;;;;;;7.60;5.65;;;640.40;1228.80;;;;;;5447617;26;20014;-77
2024/04/19 08:17:45;;;;;;;5.63;5.07;;;691.80;1177.60;;;;;;5447056;26;20002;-76
2024/04/19 08:20:11;;;;;;;7.45;5.40;;;615.10;1228.80;;;;;;5446602;26;20014;-73
2024/04/19 08:22:37;;;;;;;7.05;6.22;;;589.20;1280.00;;;;;;5446579;26;20010;-75
2024/04/19 08:25:04;;;;;;;6.20;5.60;;;665.60;1203.20;;;;;;5446991;26;20002;-73
2024/04/19 08:27:29;;;;;;;10.23;9.20;;;717.20;1100.80;;;;;;5446043;26;20010;-73
2024/04/19 08:29:55;;;;;;;6.30;5.63;;;666.40;1126.40;;;;;;5447269;26;20398;-73
2024/04/19 08:32:21;;;;;;;6.57;5.20;;;716.90;1126.40;;;;;;5446255;26;19998;-74
2024/04/19 08:34:48;;;;;;;6.43;5.65;;;691.90;1152.00;;;;;;5447350;26;20018;-74
2024/04/19 08:37:14;;;;;;;6.07;5.07;;;666.50;1177.60;;;;;;5446721;26;20072;-75
2024/04/19 08:39:40;;;;;;;8.52;6.50;;;615.30;1203.20;;;;;;5446526;26;20386;-73
2024/04/19 08:42:08;;;;;;;7.28;5.38;;;589.70;1280.00;;;;;;5446161;26;20071;-72
2024/04/19 08:44:34;;;;;;;4.68;3.88;;;589.00;1305.60;;;;;;5445169;26;20433;-73
2024/04/19 08:47:01;;;;;;;5.10;4.45;;;538.20;1305.60;;;;;;5445822;26;20014;-74
2024/04/19 08:49:28;;;;;;;7.00;5.47;;;512.90;1331.20;;;;;;5447382;26;20437;-73
2024/04/19 08:51:55;;;;;;;5.63;3.75;;;512.60;1331.20;;;;;;5446889;26;20394;-73
2024/04/19 08:54:25;;;;;;;7.15;4.90;;;512.30;1356.80;;;;;;5446795;26;20013;-74
2024/04/19 08:56:51;;;;;;;10.02;8.18;;;487.10;1382.40;;;;;;5446152;26;20014;-74
2024/04/19 08:59:19;;;;;;;6.78;4.72;;;512.00;1305.60;;;;;;5447609;26;19999;-73
2024/04/19 09:01:45;;;;;;;8.55;6.15;;;512.30;1356.80;;;;;;5447533;26;20010;-73
2024/04/19 09:04:11;;;;;;;6.45;4.82;;;487.30;1382.40;;;;;;5447233;26;20384;-76
2024/04/19 09:06:37;;;;;;;6.32;4.10;;;487.00;1408.00;;;;;;5447070;26;20010;-72
2024/04/19 09:09:04;;;;;;;6.03;4.00;;;486.70;1433.60;;;;;;5446854;26;20039;-72
2024/04/19 09:11:29;;;;;;;6.72;4.43;;;486.60;1408.00;;;;;;5446900;26;20101;-74
2024/04/19 09:13:56;;;;;;;5.15;3.80;;;486.80;1382.40;;;;;;5447215;26;20009;-73
2024/04/19 09:16:22;;;;;;;4.88;3.42;;;486.80;1408.00;;;;;;5446577;26;20402;-72
2024/04/19 09:18:49;;;;;;;5.95;4.53;;;487.00;1382.40;;;;;;5447603;26;20340;-72
2024/04/19 09:21:16;;;;;;;7.25;4.55;;;486.50;1408.00;;;;;;5446911;26;20143;-73
2024/04/19 09:23:42;;;;;;;8.02;5.95;;;461.60;1433.60;;;;;;5446354;26;20009;-77
2024/04/19 09:26:08;;;;;;;11.45;7.18;;;461.20;1433.60;;;;;;5445445;26;19998;-72
2024/04/19 09:28:34;;;;;;;6.75;5.45;;;461.30;1433.60;;;;;;5445636;26;20007;-75
2024/04/19 09:31:00;;;;;;;7.13;6.43;;;461.60;1433.60;;;;;;5445839;26;20002;-73
2024/04/19 09:33:26;;;;;;;5.35;3.80;;;461.20;1459.20;;;;;;5446504;26;19995;-73
2024/04/19 09:35:56;;;;;;;9.25;5.55;;;461.20;1459.20;;;;;;5444987;26;20011;-73
2024/04/19 09:38:23;;;;;;;9.10;7.38;;;461.00;1433.60;;;;;;5445802;26;20027;-74
2024/04/19 09:40:49;;;;;;;9.23;6.13;;;461.20;1408.00;;;;;;5445520;26;20014;-73
2024/04/19 09:43:22;;;;;;;5.90;4.60;;;461.40;1382.40;;;;;;5446290;26;19999;-74
2024/04/19 09:45:52;;;;;;;;;;;461.20;1433.60;;;;;;5446266;26;20035;-74
2024/04/19 09:48:21;;;;;;;6.88;4.68;;;461.10;1433.60;;;;;;5446027;26;19948;-74
2024/04/19 09:50:51;;;;;;;7.35;5.40;;;461.20;1459.20;;;;;;5445701;26;20002;-74
2024/04/19 09:53:47;;;;;;;9.50;6.88;;;460.90;1484.80;;;;;;5446134;26;20010;-74
2024/04/19 09:56:35;;;;;;;9.93;7.00;;;461.50;1459.20;;;;;;5302247;26;20454;-73
2024/04/19 09:59:02;;;;;;;7.55;5.45;;;461.70;1433.60;;;;;;5301359;27;20009;-73
2024/04/19 10:01:28;;;;;;;9.27;7.50;;;486.80;1459.20;;;;;;5302936;27;19993;-74
2024/04/19 10:03:55;;;;;;;12.50;7.97;;;486.40;1382.40;;;;;;5302149;27;20345;-73
2024/04/19 10:06:25;;;;;;;10.02;6.75;;;461.00;1433.60;;;;;;5303397;27;20017;-74
2024/04/19 10:08:52;;;;;;;9.07;3.83;;;461.50;1459.20;;;;;;5301889;27;20034;-74
2024/04/19 10:11:19;;;;;;;4.53;3.65;;;461.20;1459.20;;;;;;5280180;27;20391;-74
2024/04/19 10:13:45;;;;;;;5.82;3.65;;;461.10;1433.60;;;;;;5301949;27;20009;-73
2024/04/19 10:16:11;;;;;;;12.77;9.15;;;461.00;1484.80;;;;;;5302897;27;20364;-73
2024/04/19 10:18:37;;;;;;;11.05;6.35;;;460.80;1459.20;;;;;;5302067;27;20084;-76
2024/04/19 10:21:04;;;;;;;9.77;6.90;;;435.90;1433.60;;;;;;5302617;27;20002;-73
2024/04/19 10:23:29;;;;;;;9.82;7.03;;;461.00;1484.80;;;;;;5301431;27;20002;-74
2024/04/19 10:25:58;;;;;;;5.60;4.00;;;461.10;1433.60;;;;;;5303437;27;20431;-73
2024/04/19 10:28:28;;;;;;;5.25;3.97;;;461.10;1459.20;;;;;;5301080;27;20001;-74
2024/04/19 10:30:54;;;;;;;7.22;5.93;;;461.30;1408.00;;;;;;5302825;27;20415;-73
2024/04/19 10:33:20;;;;;;;8.13;6.13;;;461.40;1408.00;;;;;;5411693;26;19999;-74
2024/04/19 10:35:47;;;;;;;8.77;7.05;;;461.70;1408.00;;;;;;5446488;26;19999;-73
2024/04/19 10:38:13;;;;;;;8.52;6.35;;;486.50;1433.60;;;;;;5444496;26;20332;-73
2024/04/19 10:40:39;;;;;;;6.68;4.90;;;461.10;1408.00;;;;;;5446157;26;20014;-73
2024/04/19 10:43:08;;;;;;;10.30;7.50;;;461.30;1433.60;;;;;;5444943;26;19999;-77
2024/04/19 10:45:36;;;;;;;9.15;4.40;;;461.00;1433.60;;;;;;5445123;26;20007;-77
2024/04/19 10:48:03;;;;;;;9.48;5.72;;;435.50;1459.20;;;;;;5444834;26;20008;-73
2024/04/19 10:50:30;;;;;;;7.78;5.78;;;435.50;1484.80;;;;;;5445474;26;20023;-75
2024/04/19 10:52:57;;;;;;;7.35;5.68;;;435.60;1459.20;;;;;;5445011;26;20031;-72
2024/04/19 10:55:27;;;;;;;5.13;4.05;;;435.50;1459.20;;;;;;5445207;26;20027;-75
2024/04/19 10:57:56;;;;;;;9.95;7.78;;;410.50;1484.80;;;;;;5444436;26;20013;-73
2024/04/19 11:00:26;;;;;;;7.53;5.70;;;435.20;1459.20;;;;;;5445358;26;20080;-72
2024/04/19 11:02:52;;;;;;;7.80;5.47;;;435.40;1459.20;;;;;;5444695;26;20007;-73
2024/04/19 11:05:18;;;;;;;6.82;5.00;;;435.30;1459.20;;;;;;5445980;26;20002;-73
2024/04/19 11:07:44;;;;;;;5.90;4.40;;;435.60;1510.40;;;;;;5448020;26;19995;-75
2024/04/19 11:10:10;;;;;;;6.75;4.03;;;435.80;1510.40;;;;;;5448286;26;20013;-74
2024/04/19 11:12:36;;;;;;;6.68;4.00;;;435.60;1459.20;;;;;;5448352;26;20071;-73
2024/04/19 11:15:03;;;;;;;5.03;4.03;;;410.40;1510.40;;;;;;5448279;26;20007;-75
2024/04/19 11:17:28;;;;;;;5.25;3.67;;;435.70;1510.40;;;;;;5448389;26;20002;-73
2024/04/19 11:19:54;;;;;;;5.07;3.42;;;436.00;1484.80;;;;;;5449021;26;19999;-73
2024/04/19 11:22:20;;;;;;;7.57;4.65;;;461.30;1510.40;;;;;;5448760;26;19999;-75
2024/04/19 11:24:46;;;;;;;5.22;3.30;;;461.00;1433.60;;;;;;5449632;26;20068;-73
2024/04/19 11:27:12;;;;;;;7.57;5.70;;;460.90;1484.80;;;;;;5449091;26;20002;-74
2024/04/19 11:29:38;;;;;;;6.28;4.75;;;460.80;1484.80;;;;;;5448795;26;20072;-73
2024/04/19 11:32:05;;;;;;;10.40;6.50;;;436.10;1459.20;;;;;;5447546;26;19999;-74
2024/04/19 11:34:31;;;;;;;6.60;5.75;;;436.10;1433.60;;;;;;5448425;26;20003;-75
2024/04/19 11:37:05;;;;;;;8.75;4.13;;;435.50;1459.20;;;;;;5448150;26;20010;-73
2024/04/19 11:39:31;;;;;;;6.03;5.20;;;435.50;1459.20;;;;;;5447654;26;20003;-75
2024/04/19 11:41:57;;;;;;;6.60;4.93;;;460.80;1484.80;;;;;;5448722;26;20436;-76
2024/04/19 11:44:23;;;;;;;8.32;5.35;;;461.10;1459.20;;;;;;5447333;26;20337;-73
2024/04/19 11:46:50;;;;;;;4.82;3.22;;;461.00;1433.60;;;;;;5448928;26;20003;-73
2024/04/19 11:49:17;;;;;;;6.65;5.00;;;461.20;1459.20;;;;;;5447733;26;20030;-72
2024/04/19 11:51:47;;;;;;;6.45;3.80;;;461.10;1459.20;;;;;;5448378;26;20002;-72
2024/04/19 11:54:16;;;;;;;4.03;3.13;;;461.10;1433.60;;;;;;5414583;26;20336;-78
2024/04/19 11:56:42;;;;;;;9.00;4.80;;;461.10;1459.20;;;;;;5447941;26;19999;-72
2024/04/19 11:59:08;;;;;;;6.45;3.92;;;461.10;1459.20;;;;;;5446979;26;20010;-73
2024/04/19 12:01:34;;;;;;;5.57;4.28;;;460.80;1459.20;;;;;;5448674;26;20021;-77
2024/04/19 12:03:59;;;;;;;7.38;4.30;;;461.00;1433.60;;;;;;5446601;26;20003;-72
2024/04/19 12:06:25;;;;;;;7.70;5.40;;;460.90;1459.20;;;;;;5448211;26;20003;-74
2024/04/19 12:08:53;;;;;;;7.25;4.63;;;436.10;1433.60;;;;;;5446580;26;20002;-74
2024/04/19 12:11:18;;;;;;;8.05;3.90;;;435.30;1459.20;;;;;;5425449;26;20102;-74
2024/04/19 12:13:46;;;;;;;7.63;6.03;;;435.20;1433.60;;;;;;5447218;26;20444;-73